createdAt,value
2018-09-13T00:00:52.065Z,14.60
2018-09-13T00:03:20.381Z,14.60
2018-09-13T00:05:48.680Z,14.60
2018-09-13T00:08:16.843Z,14.60
2018-09-13T00:10:45.019Z,14.60
2018-09-13T00:13:13.754Z,14.60
2018-09-13T00:15:41.953Z,14.60
2018-09-13T00:18:10.152Z,14.60
2018-09-13T00:20:38.631Z,14.60
2018-09-13T00:23:07.415Z,14.60
2018-09-13T00:25:35.612Z,14.60
2018-09-13T00:28:03.962Z,14.60
2018-09-13T00:30:32.173Z,14.60
2018-09-13T00:33:00.349Z,14.60
2018-09-13T00:35:28.546Z,14.70
2018-09-13T00:37:56.763Z,14.60
2018-09-13T00:40:24.968Z,14.60
2018-09-13T00:42:53.132Z,14.60
2018-09-13T00:45:21.332Z,14.60
2018-09-13T00:47:49.512Z,14.50
2018-09-13T00:50:17.724Z,14.50
2018-09-13T00:52:46.092Z,14.50
2018-09-13T00:55:14.742Z,14.50
2018-09-13T00:57:42.989Z,14.40
2018-09-13T01:00:11.274Z,14.40
2018-09-13T01:02:39.455Z,14.40
2018-09-13T01:05:07.650Z,14.40
2018-09-13T01:07:35.826Z,14.30
2018-09-13T01:10:04.138Z,14.30
2018-09-13T01:12:32.313Z,14.30
2018-09-13T01:15:00.513Z,14.30
2018-09-13T01:17:28.697Z,14.20
2018-09-13T01:19:56.918Z,14.20
2018-09-13T01:22:25.101Z,14.20
2018-09-13T01:24:54.616Z,14.20
2018-09-13T01:27:23.578Z,14.10
2018-09-13T01:29:51.777Z,14.10
2018-09-13T01:32:20.261Z,14.10
2018-09-13T01:34:48.440Z,14.10
2018-09-13T01:37:16.645Z,14.10
2018-09-13T01:39:44.820Z,14.10
2018-09-13T01:42:13.024Z,14.10
2018-09-13T01:44:41.252Z,14.10
2018-09-13T01:47:09.534Z,14.10
2018-09-13T01:49:37.736Z,14.00
2018-09-13T01:52:06.121Z,14.00
2018-09-13T01:54:34.396Z,14.00
2018-09-13T01:57:02.604Z,14.00
2018-09-13T01:59:30.818Z,14.00
2018-09-13T02:01:59.125Z,14.00
2018-09-13T02:04:27.392Z,14.00
2018-09-13T02:06:55.593Z,14.00
2018-09-13T02:09:23.764Z,14.00
2018-09-13T02:11:51.974Z,14.00
2018-09-13T02:14:20.150Z,14.00
2018-09-13T02:16:48.355Z,14.00
2018-09-13T02:19:16.553Z,14.10
2018-09-13T02:21:44.752Z,14.10
2018-09-13T02:24:12.976Z,14.00
2018-09-13T02:26:41.184Z,14.10
2018-09-13T02:29:09.376Z,14.10
2018-09-13T02:31:38.133Z,14.10
2018-09-13T02:34:06.311Z,14.10
2018-09-13T02:36:34.516Z,14.10
2018-09-13T02:39:02.712Z,14.10
2018-09-13T02:41:30.915Z,14.10
2018-09-13T02:43:59.293Z,14.10
2018-09-13T02:46:27.589Z,14.00
2018-09-13T02:48:55.783Z,14.10
2018-09-13T02:51:23.968Z,14.00
2018-09-13T02:53:52.199Z,14.10
2018-09-13T02:56:20.388Z,14.00
2018-09-13T02:58:48.575Z,14.00
2018-09-13T03:01:16.752Z,14.00
2018-09-13T03:03:44.946Z,14.00
2018-09-13T03:06:13.124Z,14.00
2018-09-13T03:08:41.326Z,14.00
2018-09-13T03:11:09.499Z,14.00
2018-09-13T03:13:37.702Z,14.00
2018-09-13T03:16:06.640Z,14.00
2018-09-13T03:18:34.841Z,13.90
2018-09-13T03:21:03.024Z,13.90
2018-09-13T03:23:31.252Z,13.90
2018-09-13T03:25:59.565Z,13.80
2018-09-13T03:28:27.994Z,13.80
2018-09-13T03:30:56.158Z,13.80
2018-09-13T03:33:24.368Z,13.80
2018-09-13T03:35:52.647Z,13.70
2018-09-13T03:38:20.857Z,13.70
2018-09-13T03:40:49.025Z,13.70
2018-09-13T03:43:17.388Z,13.70
2018-09-13T03:45:45.779Z,13.70
2018-09-13T03:48:14.005Z,13.70
2018-09-13T03:50:42.185Z,13.70
2018-09-13T03:53:10.417Z,13.70
2018-09-13T03:55:38.606Z,13.70
2018-09-13T03:58:06.938Z,13.70
2018-09-13T04:00:35.108Z,13.70
2018-09-13T04:03:03.356Z,13.70
2018-09-13T04:05:31.512Z,13.70
2018-09-13T04:07:59.708Z,13.60
2018-09-13T04:10:27.868Z,13.70
2018-09-13T04:12:56.301Z,13.70
2018-09-13T04:15:24.473Z,13.70
2018-09-13T04:17:52.949Z,13.60
2018-09-13T04:20:21.101Z,13.60
2018-09-13T04:22:49.411Z,13.60
2018-09-13T04:25:17.584Z,13.60
2018-09-13T04:27:46.009Z,13.60
2018-09-13T04:30:14.178Z,13.60
2018-09-13T04:32:42.342Z,13.60
2018-09-13T04:35:10.599Z,13.60
2018-09-13T04:37:38.760Z,13.60
2018-09-13T04:40:07.075Z,13.60
2018-09-13T04:42:35.238Z,13.60
2018-09-13T04:45:03.437Z,13.60
2018-09-13T04:47:31.645Z,13.60
2018-09-13T04:49:59.838Z,13.60
2018-09-13T04:52:28.592Z,13.60
2018-09-13T04:54:56.769Z,13.60
2018-09-13T04:57:24.959Z,13.60
2018-09-13T04:59:53.156Z,13.60
2018-09-13T05:02:21.405Z,13.60
2018-09-13T05:04:49.612Z,13.60
2018-09-13T05:07:18.012Z,13.60
2018-09-13T05:09:46.214Z,13.60
2018-09-13T05:12:14.381Z,13.60
2018-09-13T05:14:42.569Z,13.50
2018-09-13T05:17:10.740Z,13.60
2018-09-13T05:19:38.919Z,13.50
2018-09-13T05:22:07.099Z,13.60
2018-09-13T05:24:35.506Z,13.50
2018-09-13T05:27:03.664Z,13.60
2018-09-13T05:29:31.860Z,13.50
2018-09-13T05:32:00.033Z,14.00
2018-09-13T05:34:28.308Z,13.60
2018-09-13T05:36:56.513Z,13.50
2018-09-13T05:39:24.700Z,13.50
2018-09-13T05:41:52.898Z,13.50
2018-09-13T05:44:21.097Z,13.50
2018-09-13T05:46:49.374Z,13.50
2018-09-13T05:49:17.608Z,13.50
2018-09-13T05:51:45.850Z,13.50
2018-09-13T05:54:14.059Z,13.50
2018-09-13T05:56:42.364Z,13.50
2018-09-13T05:59:10.580Z,13.50
2018-09-13T06:01:38.855Z,13.50
2018-09-13T06:04:07.093Z,13.50
2018-09-13T06:06:35.264Z,13.50
2018-09-13T06:09:03.517Z,13.50
2018-09-13T06:11:31.721Z,13.50
2018-09-13T06:13:59.915Z,13.50
2018-09-13T06:16:28.092Z,13.50
2018-09-13T06:18:56.265Z,13.50
2018-09-13T06:21:24.514Z,13.50
2018-09-13T06:23:52.705Z,13.50
2018-09-13T06:26:20.954Z,13.50
2018-09-13T06:28:49.162Z,13.40
2018-09-13T06:31:17.453Z,13.40
2018-09-13T06:33:45.629Z,13.40
2018-09-13T06:36:13.841Z,13.40
2018-09-13T06:38:41.992Z,13.40
2018-09-13T06:41:10.286Z,13.40
2018-09-13T06:43:38.784Z,13.40
2018-09-13T06:46:06.969Z,13.40
2018-09-13T06:48:35.307Z,13.40
2018-09-13T06:51:03.433Z,13.40
2018-09-13T06:53:31.672Z,13.40
2018-09-13T06:55:59.851Z,13.40
2018-09-13T06:58:28.020Z,13.40
2018-09-13T07:00:56.300Z,13.40
2018-09-13T07:03:24.458Z,13.40
2018-09-13T07:05:52.687Z,13.40
2018-09-13T07:08:21.094Z,13.40
2018-09-13T07:10:49.301Z,13.40
2018-09-13T07:13:17.506Z,13.40
2018-09-13T07:15:45.798Z,13.30
2018-09-13T07:18:13.976Z,13.30
2018-09-13T07:20:42.215Z,13.30
2018-09-13T07:23:10.960Z,13.30
2018-09-13T07:25:39.301Z,13.30
2018-09-13T07:28:07.475Z,13.30
2018-09-13T07:30:35.697Z,13.40
2018-09-13T07:33:03.906Z,13.30
2018-09-13T07:35:32.172Z,13.40
2018-09-13T07:38:00.348Z,13.40
2018-09-13T07:40:28.512Z,13.40
2018-09-13T07:42:56.747Z,13.40
2018-09-13T07:45:24.873Z,13.40
2018-09-13T07:47:53.138Z,13.40
2018-09-13T07:50:21.307Z,13.40
2018-09-13T07:52:49.592Z,13.40
2018-09-13T07:55:17.860Z,13.40
2018-09-13T07:57:46.069Z,13.40
2018-09-13T08:00:14.259Z,13.40
2018-09-13T08:02:42.493Z,13.30
2018-09-13T08:05:10.782Z,13.30
2018-09-13T08:07:38.868Z,13.30
2018-09-13T08:10:07.134Z,13.30
2018-09-13T08:12:35.337Z,13.30
2018-09-13T08:15:03.563Z,13.30
2018-09-13T08:17:31.722Z,13.40
2018-09-13T08:19:59.885Z,13.40
2018-09-13T08:22:28.180Z,13.40
2018-09-13T08:24:56.360Z,13.40
2018-09-13T08:27:24.567Z,13.40
2018-09-13T08:29:52.777Z,13.40
2018-09-13T08:32:20.977Z,13.40
2018-09-13T08:34:49.242Z,13.30
2018-09-13T08:37:17.349Z,13.30
2018-09-13T08:39:45.523Z,13.40
2018-09-13T08:42:13.850Z,13.40
2018-09-13T08:44:42.063Z,13.40
2018-09-13T08:47:10.290Z,13.40
2018-09-13T08:49:38.464Z,13.40
2018-09-13T08:52:06.718Z,13.40
2018-09-13T08:54:34.893Z,13.40
2018-09-13T08:57:03.216Z,13.40
2018-09-13T08:59:31.380Z,13.40
2018-09-13T09:01:59.586Z,13.50
2018-09-13T09:04:27.765Z,13.50
2018-09-13T09:06:56.224Z,13.50
2018-09-13T09:09:24.392Z,13.50
2018-09-13T09:11:52.620Z,13.60
2018-09-13T09:14:20.749Z,13.60
2018-09-13T09:16:49.077Z,13.60
2018-09-13T09:19:17.243Z,13.60
2018-09-13T09:21:45.448Z,13.70
2018-09-13T09:24:13.650Z,13.70
2018-09-13T09:26:42.219Z,13.80
2018-09-13T09:29:10.443Z,13.90
2018-09-13T09:31:38.595Z,13.80
2018-09-13T09:34:06.965Z,13.80
2018-09-13T09:36:35.128Z,13.80
2018-09-13T09:39:04.989Z,13.80
2018-09-13T09:41:33.158Z,13.90
2018-09-13T09:44:01.596Z,13.90
2018-09-13T09:46:29.742Z,14.00
2018-09-13T09:48:57.946Z,14.00
2018-09-13T09:51:26.111Z,14.00
2018-09-13T09:53:54.342Z,14.10
2018-09-13T09:56:22.506Z,14.00
2018-09-13T09:58:50.688Z,14.00
2018-09-13T10:01:26.791Z,14.00
2018-09-13T10:03:55.892Z,14.00
2018-09-13T10:06:24.105Z,14.00
2018-09-13T10:08:52.370Z,14.00
2018-09-13T10:11:20.480Z,14.00
2018-09-13T10:13:48.688Z,14.00
2018-09-13T10:16:22.171Z,14.10
2018-09-13T10:18:54.574Z,14.10
2018-09-13T10:21:28.173Z,14.10
2018-09-13T10:24:01.798Z,14.10
2018-09-13T10:26:36.438Z,14.20
2018-09-13T10:29:10.193Z,14.20
2018-09-13T10:31:43.571Z,14.20
2018-09-13T10:34:17.168Z,14.20
2018-09-13T10:36:50.768Z,14.30
2018-09-13T10:39:24.384Z,14.30
2018-09-13T10:42:03.650Z,14.30
2018-09-13T10:44:38.928Z,14.30
2018-09-13T10:47:12.556Z,14.30
2018-09-13T10:52:22.142Z,14.40
2018-09-13T10:54:50.933Z,14.50
2018-09-13T10:57:24.560Z,14.60
2018-09-13T10:59:52.882Z,14.50
2018-09-13T11:02:21.269Z,14.50
2018-09-13T11:04:49.833Z,14.50
2018-09-13T11:07:17.990Z,14.50
2018-09-13T11:09:48.133Z,14.50
2018-09-13T11:12:16.329Z,14.50
2018-09-13T11:14:55.992Z,14.60
2018-09-13T11:17:25.125Z,14.60
2018-09-13T11:19:55.028Z,14.60
2018-09-13T11:22:23.176Z,14.70
2018-09-13T11:24:52.457Z,14.80
2018-09-13T11:27:20.833Z,14.80
2018-09-13T11:29:49.033Z,14.90
2018-09-13T11:32:17.252Z,14.90
2018-09-13T11:34:45.519Z,15.00
2018-09-13T11:37:14.028Z,15.00
2018-09-13T11:39:42.222Z,15.10
2018-09-13T11:42:10.456Z,15.10
2018-09-13T11:44:38.636Z,15.10
2018-09-13T11:47:07.214Z,15.10
2018-09-13T11:49:35.469Z,15.00
2018-09-13T11:52:03.701Z,14.90
2018-09-13T11:54:31.872Z,14.90
2018-09-13T11:57:00.186Z,14.90
2018-09-13T11:59:28.348Z,14.90
2018-09-13T12:01:56.655Z,14.90
2018-09-13T12:04:24.756Z,15.00
2018-09-13T12:06:53.381Z,15.10
2018-09-13T12:09:21.564Z,15.10
2018-09-13T12:11:49.785Z,15.10
2018-09-13T12:14:17.940Z,15.20
2018-09-13T12:16:46.944Z,15.20
2018-09-13T12:19:15.922Z,15.20
2018-09-13T12:21:47.621Z,15.20
2018-09-13T12:24:16.206Z,15.20
2018-09-13T12:26:44.378Z,15.20
2018-09-13T12:29:14.296Z,15.20
2018-09-13T12:31:42.548Z,15.20
2018-09-13T12:34:10.713Z,15.20
2018-09-13T12:36:39.688Z,15.20
2018-09-13T12:39:09.432Z,15.20
2018-09-13T12:41:37.951Z,15.30
2018-09-13T12:44:06.249Z,15.30
2018-09-13T12:46:34.586Z,15.30
2018-09-13T12:49:02.809Z,15.40
2018-09-13T12:51:31.398Z,15.50
2018-09-13T12:53:59.665Z,15.50
2018-09-13T12:56:27.876Z,15.50
2018-09-13T12:58:57.380Z,15.50
2018-09-13T13:01:25.577Z,15.50
2018-09-13T13:03:59.086Z,15.50
2018-09-13T13:06:27.326Z,15.50
2018-09-13T13:08:56.142Z,15.50
2018-09-13T13:11:24.253Z,15.60
2018-09-13T13:13:53.595Z,15.60
2018-09-13T13:16:21.849Z,15.70
2018-09-13T13:18:50.220Z,15.80
2018-09-13T13:21:18.420Z,15.90
2018-09-13T13:23:48.037Z,15.90
2018-09-13T13:26:16.202Z,15.90
2018-09-13T13:28:44.467Z,16.00
2018-09-13T13:31:12.632Z,16.10
2018-09-13T13:33:44.865Z,16.10
2018-09-13T13:36:13.138Z,16.10
2018-09-13T13:38:41.333Z,16.10
2018-09-13T13:41:09.707Z,16.20
2018-09-13T13:43:37.924Z,16.20
2018-09-13T13:46:06.136Z,16.30
2018-09-13T13:48:34.331Z,16.30
2018-09-13T13:51:02.489Z,16.40
2018-09-13T13:53:30.671Z,16.50
2018-09-13T13:55:58.844Z,16.60
2018-09-13T13:58:27.193Z,16.60
2018-09-13T14:00:55.360Z,16.60
2018-09-13T14:03:23.516Z,16.70
2018-09-13T14:05:51.709Z,16.70
2018-09-13T14:08:20.265Z,16.70
2018-09-13T14:10:48.486Z,16.70
2018-09-13T14:13:16.654Z,16.70
2018-09-13T14:15:45.697Z,16.70
2018-09-13T14:18:14.242Z,16.80
2018-09-13T14:20:42.579Z,16.80
2018-09-13T14:23:10.849Z,16.90
2018-09-13T14:25:39.283Z,16.90
2018-09-13T14:28:09.315Z,17.00
2018-09-13T14:30:40.749Z,17.00
2018-09-13T14:33:10.284Z,17.10
2018-09-13T14:35:38.622Z,17.10
2018-09-13T14:38:06.748Z,17.10
2018-09-13T14:40:35.123Z,17.10
2018-09-13T14:43:03.341Z,17.10
2018-09-13T14:45:31.603Z,17.10
2018-09-13T14:47:59.812Z,17.10
2018-09-13T14:50:28.060Z,17.10
2018-09-13T14:52:56.216Z,17.10
2018-09-13T14:55:25.369Z,17.10
2018-09-13T14:57:53.672Z,17.20
2018-09-13T15:00:22.266Z,17.20
2018-09-13T15:02:50.409Z,17.20
2018-09-13T15:05:18.855Z,17.20
2018-09-13T15:07:47.033Z,17.10
2018-09-13T15:10:15.224Z,17.10
2018-09-13T15:12:45.285Z,17.00
2018-09-13T15:15:15.388Z,17.00
2018-09-13T15:17:43.684Z,17.00
2018-09-13T15:20:12.145Z,16.90
2018-09-13T15:22:40.916Z,16.90
2018-09-13T15:25:09.088Z,16.80
2018-09-13T15:27:37.319Z,16.80
2018-09-13T15:30:05.962Z,16.80
2018-09-13T15:32:34.077Z,16.80
2018-09-13T15:35:02.257Z,16.70
2018-09-13T15:37:30.528Z,16.70
2018-09-13T15:39:58.995Z,16.70
2018-09-13T15:42:27.549Z,16.60
2018-09-13T15:44:55.755Z,16.60
2018-09-13T15:47:23.932Z,16.60
2018-09-13T15:49:52.102Z,16.60
2018-09-13T15:52:20.295Z,16.60
2018-09-13T15:54:48.471Z,16.70
2018-09-13T15:57:16.737Z,16.70
2018-09-13T15:59:46.447Z,16.70
2018-09-13T16:02:14.714Z,16.70
2018-09-13T16:04:42.898Z,16.70
2018-09-13T16:07:11.053Z,16.60
2018-09-13T16:09:39.219Z,16.60
2018-09-13T16:12:07.409Z,16.60
2018-09-13T16:14:35.568Z,16.60
2018-09-13T16:17:03.970Z,16.60
2018-09-13T16:19:32.531Z,16.60
2018-09-13T16:22:00.980Z,16.60
2018-09-13T16:24:29.342Z,16.60
2018-09-13T16:26:57.515Z,16.60
2018-09-13T16:29:25.685Z,16.50
2018-09-13T16:31:54.306Z,16.50
2018-09-13T16:34:22.522Z,16.50
2018-09-13T16:36:58.885Z,16.50
2018-09-13T16:39:32.355Z,16.50
2018-09-13T16:42:06.321Z,16.50
2018-09-13T16:44:39.988Z,16.50
2018-09-13T16:47:13.866Z,16.50
2018-09-13T16:49:42.005Z,16.50
2018-09-13T16:52:10.176Z,16.40
2018-09-13T16:54:39.573Z,16.40
2018-09-13T16:57:08.596Z,16.40
2018-09-13T16:59:37.521Z,16.40
2018-09-13T17:02:05.800Z,16.40
2018-09-13T17:04:34.278Z,16.30
2018-09-13T17:07:02.619Z,16.30
2018-09-13T17:09:30.913Z,16.30
2018-09-13T17:11:59.089Z,16.30
2018-09-13T17:14:27.264Z,16.30
2018-09-13T17:16:55.412Z,16.30
2018-09-13T17:19:23.642Z,16.20
2018-09-13T17:21:51.792Z,16.20
2018-09-13T17:24:19.996Z,16.20
2018-09-13T17:26:48.117Z,15.90
2018-09-13T17:29:16.318Z,16.20
2018-09-13T17:31:44.477Z,16.20
2018-09-13T17:34:12.665Z,16.20
2018-09-13T17:36:41.312Z,16.20
2018-09-13T17:39:10.907Z,16.20
2018-09-13T17:41:39.060Z,16.10
2018-09-13T17:44:07.857Z,16.10
2018-09-13T17:46:35.997Z,16.10
2018-09-13T17:49:04.217Z,16.10
2018-09-13T17:51:32.745Z,16.10
2018-09-13T17:54:01.144Z,16.10
2018-09-13T17:56:29.397Z,16.00
2018-09-13T17:58:57.584Z,16.00
2018-09-13T18:01:25.746Z,16.00
2018-09-13T18:03:53.932Z,16.00
2018-09-13T18:06:22.561Z,16.00
2018-09-13T18:08:50.742Z,15.90
2018-09-13T18:11:18.922Z,15.90
2018-09-13T18:13:47.218Z,15.90
2018-09-13T18:16:15.399Z,15.90
2018-09-13T18:18:44.521Z,15.80
2018-09-13T18:21:12.680Z,15.80
2018-09-13T18:23:41.125Z,15.80
2018-09-13T18:26:09.249Z,15.70
2018-09-13T18:28:37.415Z,15.70
2018-09-13T18:31:05.633Z,15.70
2018-09-13T18:33:33.937Z,15.70
2018-09-13T18:36:02.123Z,15.70
2018-09-13T18:38:30.302Z,15.60
2018-09-13T18:40:58.498Z,15.60
2018-09-13T18:43:26.764Z,15.60
2018-09-13T18:45:54.972Z,15.50
2018-09-13T18:48:23.939Z,15.50
2018-09-13T18:50:52.142Z,15.50
2018-09-13T18:53:20.320Z,15.40
2018-09-13T18:55:48.517Z,15.40
2018-09-13T18:58:16.705Z,15.40
2018-09-13T19:00:44.945Z,15.30
2018-09-13T19:03:13.210Z,15.30
2018-09-13T19:05:41.414Z,15.20
2018-09-13T19:08:09.686Z,15.20
2018-09-13T19:10:37.842Z,15.20
2018-09-13T19:13:06.278Z,15.10
2018-09-13T19:15:34.502Z,15.10
2018-09-13T19:18:02.641Z,15.10
2018-09-13T19:20:30.821Z,15.10
2018-09-13T19:23:00.272Z,15.00
2018-09-13T19:25:28.541Z,15.00
2018-09-13T19:27:56.859Z,15.00
2018-09-13T19:30:25.038Z,14.90
2018-09-13T19:32:53.238Z,14.90
2018-09-13T19:35:21.617Z,14.80
2018-09-13T19:37:49.775Z,14.80
2018-09-13T19:40:17.957Z,14.70
2018-09-13T19:42:46.695Z,14.70
2018-09-13T19:45:14.885Z,14.70
2018-09-13T19:47:43.047Z,14.60
2018-09-13T19:50:11.270Z,14.60
2018-09-13T19:52:39.440Z,14.50
2018-09-13T19:55:07.836Z,14.50
2018-09-13T19:57:35.994Z,14.50
2018-09-13T20:00:04.285Z,14.40
2018-09-13T20:02:32.458Z,14.40
2018-09-13T20:05:00.770Z,14.30
2018-09-13T20:07:28.886Z,14.30
2018-09-13T20:09:57.041Z,14.20
2018-09-13T20:12:25.450Z,14.20
2018-09-13T20:14:53.888Z,14.10
2018-09-13T20:17:22.142Z,14.10
2018-09-13T20:19:50.320Z,14.10
2018-09-13T20:22:18.513Z,14.00
2018-09-13T20:24:46.696Z,13.90
2018-09-13T20:27:14.940Z,13.90
2018-09-13T20:29:43.129Z,13.80
2018-09-13T20:32:11.563Z,13.80
2018-09-13T20:34:39.729Z,13.80
2018-09-13T20:37:07.901Z,13.70
2018-09-13T20:39:36.056Z,13.70
2018-09-13T20:42:04.240Z,13.60
2018-09-13T20:44:32.399Z,13.60
2018-09-13T20:47:00.586Z,13.50
2018-09-13T20:49:28.777Z,13.50
2018-09-13T20:51:57.108Z,13.50
2018-09-13T20:54:25.268Z,13.40
2018-09-13T20:56:53.448Z,13.40
2018-09-13T20:59:21.612Z,13.30
2018-09-13T21:01:49.795Z,13.30
2018-09-13T21:04:17.961Z,13.20
2018-09-13T21:06:46.169Z,13.20
2018-09-13T21:09:14.341Z,13.20
2018-09-13T21:11:42.523Z,13.10
2018-09-13T21:14:10.699Z,13.10
2018-09-13T21:16:38.881Z,13.00
2018-09-13T21:19:07.133Z,13.00
2018-09-13T21:21:35.318Z,12.90
2018-09-13T21:24:04.327Z,12.90
2018-09-13T21:26:32.459Z,12.80
2018-09-13T21:29:00.660Z,12.80
2018-09-13T21:31:28.816Z,12.80
2018-09-13T21:33:57.012Z,12.70
2018-09-13T21:36:25.209Z,12.70
2018-09-13T21:38:53.401Z,12.60
2018-09-13T21:41:21.559Z,12.60
2018-09-13T21:43:50.006Z,12.60
2018-09-13T21:46:18.170Z,12.50
2018-09-13T21:48:46.369Z,12.50
2018-09-13T21:51:14.581Z,12.40
2018-09-13T21:53:42.769Z,12.40
2018-09-13T21:56:10.943Z,12.60
2018-09-13T21:58:39.305Z,12.40
2018-09-13T22:01:07.690Z,12.30
2018-09-13T22:03:35.869Z,12.30
2018-09-13T22:06:04.172Z,12.30
2018-09-13T22:08:32.359Z,12.20
2018-09-13T22:11:00.513Z,12.20
2018-09-13T22:13:31.040Z,12.20
2018-09-13T22:15:59.518Z,12.10
2018-09-13T22:18:27.719Z,12.10
2018-09-13T22:20:55.990Z,12.00
2018-09-13T22:23:24.196Z,12.00
2018-09-13T22:25:52.393Z,12.00
2018-09-13T22:28:20.587Z,11.90
2018-09-13T22:30:48.732Z,11.90
2018-09-13T22:33:17.421Z,11.80
2018-09-13T22:35:45.629Z,11.80
2018-09-13T22:38:13.813Z,11.80
2018-09-13T22:40:41.971Z,11.70
2018-09-13T22:43:10.145Z,11.70
2018-09-13T22:45:38.432Z,11.60
2018-09-13T22:48:06.369Z,11.60
2018-09-13T22:50:34.541Z,11.60
2018-09-13T22:53:02.727Z,11.50
2018-09-13T22:55:30.879Z,11.50
2018-09-13T22:57:59.049Z,11.50
2018-09-13T23:00:27.220Z,11.40
2018-09-13T23:02:55.378Z,11.40
2018-09-13T23:05:23.583Z,11.40
2018-09-13T23:07:51.705Z,11.40
2018-09-13T23:10:19.888Z,11.40
2018-09-13T23:12:48.880Z,11.30
2018-09-13T23:15:17.060Z,11.30
2018-09-13T23:17:45.225Z,11.30
2018-09-13T23:20:13.700Z,11.30
2018-09-13T23:22:41.873Z,11.30
2018-09-13T23:25:10.046Z,11.30
2018-09-13T23:27:38.264Z,11.30
2018-09-13T23:30:06.822Z,11.30
2018-09-13T23:32:34.981Z,11.30
2018-09-13T23:35:03.156Z,11.30
2018-09-13T23:37:31.320Z,11.30
2018-09-13T23:39:59.719Z,11.40
2018-09-13T23:42:27.676Z,11.40
2018-09-13T23:44:55.857Z,11.40
2018-09-13T23:47:24.097Z,11.40
2018-09-13T23:49:52.305Z,11.40
2018-09-13T23:52:20.462Z,11.40
2018-09-13T23:54:48.638Z,11.40
2018-09-13T23:57:16.804Z,11.40
2018-09-13T23:59:44.979Z,11.40
